EGTE/EXT METAR and TAF weather

Enter ICAO airport designator
Station Type Date Time Source
EGTE METAR 2020/04/08 21:50 UTC NOAA

EGTE 082150Z 10003KT CAVOK 10/08 Q1024


Station Type Date Time Source
EGTE Decoded METAR 2020/04/08 21:50 UTC NOAA

Exeter Airport, United Kingdom (EGTE) 50-44N 003-25W
Apr 08, 2020 - 05:50 PM EDT / 2020.04.08 2150 UTC
Wind: from the E (100 degrees) at 3 MPH (3 KT):0
Visibility: greater than 7 mile(s):0
Temperature: 50 F (10 C)
Dew Point: 46 F (8 C)
Relative Humidity: 87%
Pressure (altimeter): 30.24 in. Hg (1024 hPa)
ob: EGTE 082150Z 10003KT CAVOK 10/08 Q1024
cycle: 22

Station Type Date Time Source
EGTE TAF 2012/04/19 12:15 UTC NOAA

TAF TAF EGTE 191401Z 1912/1924 31016KT 9999 SCT030 SCT035 PROB40
TEMPO 1915/1918 7000 SHRA BKN014

Example: see airport list